createdAt,value
2023-02-07T00:00:15.422Z,30.90
2023-02-07T00:09:38.989Z,29.33
2023-02-07T00:12:31.494Z,25.33
2023-02-07T00:15:07.801Z,29.70
2023-02-07T00:24:07.987Z,37.28
2023-02-07T00:28:34.614Z,32.30
2023-02-07T00:31:42.258Z,38.53
2023-02-07T00:34:15.000Z,41.05
2023-02-07T00:36:45.933Z,29.65
2023-02-07T00:44:08.299Z,26.55
2023-02-07T00:46:47.972Z,39.10
2023-02-07T00:53:02.642Z,36.22
2023-02-07T00:55:31.467Z,35.80
2023-02-07T00:58:08.015Z,34.72
2023-02-07T01:00:39.454Z,37.47
2023-02-07T01:04:06.026Z,32.58
2023-02-07T01:07:38.980Z,30.48
2023-02-07T01:10:58.595Z,44.83
2023-02-07T01:13:10.998Z,40.83
2023-02-07T01:15:51.176Z,36.53
2023-02-07T01:27:55.726Z,30.38
2023-02-07T01:30:34.225Z,36.70
2023-02-07T01:33:21.246Z,29.58
2023-02-07T01:35:50.371Z,28.58
2023-02-07T01:38:22.313Z,31.63
2023-02-07T01:40:52.821Z,34.95
2023-02-07T01:43:27.244Z,41.10
2023-02-07T01:45:55.533Z,38.63
2023-02-07T01:48:29.625Z,31.83
2023-02-07T01:51:19.333Z,41.28
2023-02-07T01:53:47.952Z,37.17
2023-02-07T01:56:30.812Z,39.97
2023-02-07T01:59:11.006Z,34.45
2023-02-07T02:01:46.034Z,34.80
2023-02-07T02:04:14.082Z,35.40
2023-02-07T02:06:42.058Z,41.05
2023-02-07T02:09:15.693Z,37.33
2023-02-07T02:12:08.548Z,34.22
2023-02-07T02:15:09.926Z,33.35
2023-02-07T02:18:27.927Z,30.45
2023-02-07T02:21:17.264Z,38.35
2023-02-07T02:24:26.340Z,35.67
2023-02-07T02:27:17.327Z,42.60
2023-02-07T02:30:06.475Z,34.53
2023-02-07T02:32:56.824Z,38.53
2023-02-07T02:36:01.781Z,33.70
2023-02-07T02:39:00.483Z,40.47
2023-02-07T02:41:42.366Z,34.72
2023-02-07T02:44:18.591Z,39.03
2023-02-07T02:46:48.713Z,34.90
2023-02-07T02:49:18.403Z,36.28
2023-02-07T02:51:50.790Z,35.23
2023-02-07T02:54:36.725Z,36.28
2023-02-07T02:57:33.565Z,33.88
2023-02-07T03:00:22.810Z,37.90
2023-02-07T03:03:16.927Z,32.78
2023-02-07T03:06:24.034Z,33.38
2023-02-07T03:09:10.400Z,37.92
2023-02-07T03:12:04.726Z,37.38
2023-02-07T03:14:55.607Z,39.47
2023-02-07T03:17:34.683Z,28.45
2023-02-07T03:20:19.794Z,31.90
2023-02-07T03:22:48.519Z,34.95
2023-02-07T03:25:18.495Z,35.15
2023-02-07T03:27:48.916Z,41.45
2023-02-07T03:30:21.371Z,28.38
2023-02-07T03:32:56.698Z,35.17
2023-02-07T03:35:54.890Z,37.17
2023-02-07T03:38:22.782Z,29.30
2023-02-07T03:40:56.689Z,32.72
2023-02-07T03:43:30.126Z,43.55
2023-02-07T03:45:58.089Z,48.75
2023-02-07T03:48:25.780Z,44.45
2023-02-07T03:50:53.501Z,38.17
2023-02-07T03:53:21.760Z,51.90
2023-02-07T03:55:49.430Z,49.15
2023-02-07T03:58:17.102Z,51.10
2023-02-07T04:00:44.992Z,64.00
2023-02-07T04:03:12.670Z,51.15
2023-02-07T04:05:40.576Z,93.75
2023-02-07T04:08:08.286Z,66.57
2023-02-07T04:10:35.923Z,75.57
2023-02-07T04:13:03.668Z,68.57
2023-02-07T04:15:31.405Z,60.17
2023-02-07T04:17:59.017Z,65.07
2023-02-07T04:20:26.608Z,52.05
2023-02-07T04:22:54.217Z,57.33
2023-02-07T04:25:21.880Z,64.45
2023-02-07T04:27:52.226Z,77.35
2023-02-07T04:30:20.000Z,61.47
2023-02-07T04:32:47.631Z,75.90
2023-02-07T04:35:15.454Z,66.13
2023-02-07T04:37:43.099Z,52.45
2023-02-07T04:40:11.355Z,45.38
2023-02-07T04:42:38.955Z,41.00
2023-02-07T04:45:06.825Z,48.70
2023-02-07T04:47:34.459Z,40.17
2023-02-07T04:50:02.128Z,46.55
2023-02-07T04:52:29.809Z,43.13
2023-02-07T04:54:57.477Z,41.80
2023-02-07T04:57:25.101Z,41.03
2023-02-07T04:59:52.710Z,42.45
2023-02-07T05:02:20.353Z,40.65
2023-02-07T05:04:48.138Z,43.47
2023-02-07T05:07:15.838Z,38.08
2023-02-07T05:09:43.551Z,40.78
2023-02-07T05:12:11.258Z,39.83
2023-02-07T05:14:38.913Z,41.08
2023-02-07T05:17:06.585Z,36.70
2023-02-07T05:19:34.266Z,39.65
2023-02-07T05:22:01.880Z,36.10
2023-02-07T05:24:29.817Z,37.38
2023-02-07T05:26:57.470Z,38.35
2023-02-07T05:29:25.174Z,36.28
2023-02-07T05:32:11.532Z,34.53
2023-02-07T05:34:39.180Z,38.17
2023-02-07T05:37:07.132Z,30.70
2023-02-07T05:39:36.113Z,32.05
2023-02-07T05:42:05.614Z,33.42
2023-02-07T05:44:36.850Z,35.20
2023-02-07T05:47:04.691Z,33.45
2023-02-07T05:49:35.673Z,34.65
2023-02-07T05:52:03.469Z,32.28
2023-02-07T05:54:31.790Z,39.67
2023-02-07T05:56:59.891Z,35.90
2023-02-07T05:59:30.593Z,40.25
2023-02-07T06:01:58.521Z,36.95
2023-02-07T06:04:26.438Z,38.28
2023-02-07T06:06:54.104Z,39.72
2023-02-07T06:09:22.561Z,33.30
2023-02-07T06:11:52.643Z,28.65
2023-02-07T06:14:20.378Z,37.15
2023-02-07T06:16:48.036Z,35.05
2023-02-07T06:19:15.871Z,32.88
2023-02-07T06:21:46.711Z,32.53
2023-02-07T06:24:17.548Z,32.38
2023-02-07T06:29:14.884Z,29.38
2023-02-07T06:31:42.648Z,37.58
2023-02-07T06:34:10.356Z,33.45
2023-02-07T06:36:38.127Z,34.55
2023-02-07T06:39:06.056Z,32.25
2023-02-07T06:44:03.848Z,24.98
2023-02-07T06:46:31.874Z,34.00
2023-02-07T06:48:59.753Z,38.13
2023-02-07T06:51:28.027Z,32.33
2023-02-07T06:53:55.668Z,35.88
2023-02-07T06:56:23.306Z,29.77
2023-02-07T06:58:51.274Z,30.63
2023-02-07T07:01:20.228Z,29.80
2023-02-07T07:03:48.026Z,31.05
2023-02-07T07:06:15.708Z,37.70
2023-02-07T07:08:43.456Z,29.30
2023-02-07T07:11:11.265Z,39.97
2023-02-07T07:13:38.926Z,45.30
2023-02-07T07:16:06.796Z,44.65
2023-02-07T07:18:34.411Z,36.75
2023-02-07T07:21:02.090Z,32.90
2023-02-07T07:23:29.710Z,39.28
2023-02-07T07:25:57.347Z,36.58
2023-02-07T07:28:25.265Z,45.25
2023-02-07T07:30:52.958Z,36.20
2023-02-07T07:33:20.668Z,37.97
2023-02-07T07:35:48.313Z,31.90
2023-02-07T07:38:15.967Z,36.28
2023-02-07T07:40:43.610Z,32.63
2023-02-07T07:43:13.117Z,32.50
2023-02-07T07:45:51.511Z,34.38
2023-02-07T07:48:19.348Z,28.58
2023-02-07T07:50:47.046Z,31.20
2023-02-07T07:53:15.850Z,26.45
2023-02-07T07:55:43.471Z,33.53
2023-02-07T07:58:11.135Z,33.90
2023-02-07T08:00:38.985Z,32.60
2023-02-07T08:03:06.807Z,25.58
2023-02-07T08:05:34.450Z,31.33
2023-02-07T08:08:02.093Z,31.33
2023-02-07T08:10:29.834Z,25.90
2023-02-07T08:16:07.564Z,27.33
2023-02-07T08:18:44.085Z,29.88
2023-02-07T08:21:18.410Z,34.17
2023-02-07T08:28:00.766Z,29.45
2023-02-07T08:30:36.353Z,42.00
2023-02-07T08:33:04.190Z,33.65
2023-02-07T08:35:32.524Z,36.17
2023-02-07T08:38:00.278Z,61.17
2023-02-07T08:40:28.252Z,41.22
2023-02-07T08:42:55.861Z,45.83
2023-02-07T08:45:23.780Z,43.45
2023-02-07T08:47:51.604Z,49.60
2023-02-07T08:50:19.788Z,45.47
2023-02-07T08:52:47.435Z,57.00
2023-02-07T08:55:15.180Z,63.95
2023-02-07T08:57:42.939Z,75.93
2023-02-07T09:00:11.494Z,54.38
2023-02-07T09:02:39.357Z,65.45
2023-02-07T09:05:07.594Z,61.33
2023-02-07T09:07:35.284Z,54.13
2023-02-07T09:10:04.797Z,52.25
2023-02-07T09:12:36.475Z,57.65
2023-02-07T09:15:06.015Z,86.97
2023-02-07T09:17:33.771Z,87.00
2023-02-07T09:20:01.517Z,93.70
2023-02-07T09:22:29.242Z,90.47
2023-02-07T09:24:57.421Z,72.13
2023-02-07T09:27:25.394Z,91.72
2023-02-07T09:29:53.029Z,141.30
2023-02-07T09:32:20.689Z,159.15
2023-02-07T09:34:48.369Z,124.18
2023-02-07T09:37:16.009Z,97.45
2023-02-07T09:39:44.597Z,114.25
2023-02-07T09:42:33.939Z,93.55
2023-02-07T09:45:08.704Z,85.70
2023-02-07T09:47:41.393Z,92.03
2023-02-07T09:50:16.727Z,91.07
2023-02-07T09:53:02.017Z,101.30
2023-02-07T09:56:01.033Z,78.22
2023-02-07T09:58:42.048Z,73.15
2023-02-07T10:03:56.280Z,65.63
2023-02-07T10:06:28.700Z,100.70
2023-02-07T10:08:59.878Z,94.82
2023-02-07T10:11:49.467Z,70.95
2023-02-07T10:14:41.478Z,84.95
2023-02-07T10:17:25.783Z,67.25
2023-02-07T10:20:13.930Z,82.43
2023-02-07T10:23:08.281Z,71.13
2023-02-07T10:25:56.454Z,57.05
2023-02-07T10:28:38.562Z,50.10
2023-02-07T10:31:16.476Z,53.35
2023-02-07T10:33:52.379Z,64.50
2023-02-07T10:36:20.088Z,49.03
2023-02-07T10:39:08.276Z,55.17
2023-02-07T10:41:40.037Z,60.55
2023-02-07T10:44:13.009Z,63.38
2023-02-07T10:46:43.766Z,60.92
2023-02-07T10:49:25.364Z,54.67
2023-02-07T10:51:58.554Z,59.20
2023-02-07T10:54:28.024Z,60.60
2023-02-07T10:57:02.236Z,57.22
2023-02-07T10:59:54.794Z,51.70
2023-02-07T11:02:32.467Z,56.08
2023-02-07T11:05:03.094Z,47.95
2023-02-07T11:07:42.652Z,48.83
2023-02-07T11:10:25.344Z,54.97
2023-02-07T11:12:58.526Z,52.60
2023-02-07T11:15:40.190Z,42.10
2023-02-07T11:18:08.375Z,43.92
2023-02-07T11:20:42.004Z,48.30
2023-02-07T11:23:15.473Z,44.33
2023-02-07T11:25:46.049Z,48.97
2023-02-07T11:28:31.015Z,53.97
2023-02-07T11:31:06.883Z,42.55
2023-02-07T11:33:39.446Z,42.42
2023-02-07T11:36:27.584Z,40.70
2023-02-07T11:38:57.576Z,38.95
2023-02-07T11:41:31.931Z,36.80
2023-02-07T11:44:02.056Z,38.97
2023-02-07T11:46:35.673Z,42.65
2023-02-07T11:49:07.050Z,37.30
2023-02-07T11:51:35.580Z,43.03
2023-02-07T11:54:06.314Z,39.38
2023-02-07T11:56:38.941Z,34.90
2023-02-07T11:59:19.406Z,38.85
2023-02-07T12:01:56.638Z,42.00
2023-02-07T12:04:42.536Z,39.85
2023-02-07T12:07:36.053Z,40.00
2023-02-07T12:10:11.087Z,38.03
2023-02-07T12:13:06.740Z,48.63
2023-02-07T12:16:03.522Z,50.05
2023-02-07T12:19:06.423Z,39.38
2023-02-07T12:21:40.362Z,42.42
2023-02-07T12:24:26.995Z,41.92
2023-02-07T12:27:23.562Z,38.63
2023-02-07T12:29:59.983Z,38.63
2023-02-07T12:33:18.203Z,38.97
2023-02-07T12:36:06.650Z,39.65
2023-02-07T12:39:22.499Z,34.15
2023-02-07T12:42:01.786Z,36.35
2023-02-07T12:44:38.927Z,34.67
2023-02-07T12:47:37.387Z,35.78
2023-02-07T12:50:14.377Z,32.08
2023-02-07T12:53:23.957Z,43.35
2023-02-07T12:56:13.222Z,37.50
2023-02-07T12:59:18.757Z,35.75
2023-02-07T13:02:07.435Z,33.95
2023-02-07T13:04:53.954Z,32.10
2023-02-07T13:07:52.001Z,30.08
2023-02-07T13:10:25.431Z,31.63
2023-02-07T13:13:11.631Z,34.35
2023-02-07T13:15:55.784Z,32.35
2023-02-07T13:18:33.484Z,28.50
2023-02-07T13:21:26.479Z,23.90
2023-02-07T13:23:59.936Z,19.67
2023-02-07T13:26:28.415Z,19.33
2023-02-07T13:29:11.467Z,20.35
2023-02-07T13:32:00.239Z,21.17
2023-02-07T13:34:35.228Z,24.55
2023-02-07T13:37:16.106Z,19.73
2023-02-07T13:40:15.847Z,21.10
2023-02-07T13:43:07.613Z,24.33
2023-02-07T13:45:38.343Z,23.15
2023-02-07T13:48:06.232Z,22.38
2023-02-07T13:50:45.678Z,29.02
2023-02-07T13:53:48.109Z,22.77
2023-02-07T13:56:34.753Z,23.90
2023-02-07T13:59:21.304Z,24.65
2023-02-07T14:01:55.108Z,24.15
2023-02-07T14:04:23.653Z,25.23
2023-02-07T14:06:54.382Z,26.73
2023-02-07T14:09:21.979Z,22.15
2023-02-07T14:12:00.610Z,27.42
2023-02-07T14:14:34.512Z,22.77
2023-02-07T14:17:13.850Z,29.40
2023-02-07T14:19:41.688Z,29.92
2023-02-07T14:22:24.475Z,20.85
2023-02-07T14:25:07.339Z,20.45
2023-02-07T14:27:37.107Z,21.50
2023-02-07T14:30:20.845Z,19.83
2023-02-07T14:33:12.207Z,21.80
2023-02-07T14:36:03.082Z,19.27
2023-02-07T14:38:36.362Z,20.27
2023-02-07T14:41:15.841Z,25.20
2023-02-07T14:44:07.954Z,22.35
2023-02-07T14:46:51.313Z,29.00
2023-02-07T14:49:21.163Z,22.85
2023-02-07T14:51:53.053Z,22.27
2023-02-07T14:54:39.740Z,30.88
2023-02-07T14:57:28.963Z,20.40
2023-02-07T15:00:00.396Z,24.95
2023-02-07T15:02:39.980Z,27.70
2023-02-07T15:05:13.733Z,24.70
2023-02-07T15:07:44.116Z,19.98
2023-02-07T15:12:44.478Z,19.05
2023-02-07T15:15:31.716Z,18.75
2023-02-07T15:18:02.179Z,28.08
2023-02-07T15:20:35.371Z,29.38
2023-02-07T15:23:09.796Z,24.35
2023-02-07T15:25:43.065Z,40.42
2023-02-07T15:28:32.042Z,36.08
2023-02-07T15:31:10.819Z,36.85
2023-02-07T15:34:01.214Z,42.20
2023-02-07T15:36:38.511Z,44.85
2023-02-07T15:39:25.718Z,35.58
2023-02-07T15:41:55.708Z,46.53
2023-02-07T15:44:26.332Z,41.20
2023-02-07T15:49:32.335Z,30.55
2023-02-07T15:52:05.532Z,36.67
2023-02-07T15:54:43.351Z,42.63
2023-02-07T15:57:41.909Z,40.05
2023-02-07T16:00:19.965Z,44.03
2023-02-07T16:02:59.221Z,36.40
2023-02-07T16:05:39.073Z,40.90
2023-02-07T16:08:31.584Z,47.33
2023-02-07T16:11:16.554Z,43.17
2023-02-07T16:14:00.376Z,44.50
2023-02-07T16:16:34.245Z,47.65
2023-02-07T16:19:28.203Z,37.08
2023-02-07T16:22:04.578Z,46.00
2023-02-07T16:24:35.479Z,48.72
2023-02-07T16:27:05.100Z,37.90
2023-02-07T16:29:34.613Z,41.05
2023-02-07T16:32:02.384Z,36.70
2023-02-07T16:34:30.219Z,47.60
2023-02-07T16:36:57.891Z,40.40
2023-02-07T16:39:25.727Z,52.15
2023-02-07T16:42:09.944Z,40.78
2023-02-07T16:44:37.616Z,41.33
2023-02-07T16:47:05.609Z,40.47
2023-02-07T16:49:33.914Z,41.00
2023-02-07T16:52:01.628Z,38.63
2023-02-07T16:54:29.329Z,43.20
2023-02-07T16:57:01.492Z,42.33
2023-02-07T16:59:30.572Z,43.67
2023-02-07T17:01:58.400Z,37.70
2023-02-07T17:04:26.089Z,35.88
2023-02-07T17:06:53.770Z,45.90
2023-02-07T17:09:28.594Z,39.25
2023-02-07T17:11:57.216Z,39.60
2023-02-07T17:14:24.850Z,43.20
2023-02-07T17:16:52.535Z,42.00
2023-02-07T17:19:23.969Z,35.08
2023-02-07T17:21:52.820Z,44.92
2023-02-07T17:24:21.153Z,45.80
2023-02-07T17:26:52.698Z,42.65
2023-02-07T17:29:21.147Z,42.20
2023-02-07T17:31:49.417Z,45.90
2023-02-07T17:34:17.269Z,42.63
2023-02-07T17:36:48.794Z,37.05
2023-02-07T17:39:20.075Z,39.50
2023-02-07T17:41:48.679Z,41.92
2023-02-07T17:44:21.500Z,40.40
2023-02-07T17:46:54.545Z,37.47
2023-02-07T17:49:36.458Z,33.85
2023-02-07T17:52:11.182Z,44.83
2023-02-07T17:54:42.998Z,40.88
2023-02-07T17:57:18.886Z,39.00
2023-02-07T17:59:47.728Z,41.75
2023-02-07T18:02:18.775Z,40.25
2023-02-07T18:04:51.546Z,40.45
2023-02-07T18:07:31.152Z,42.90
2023-02-07T18:09:58.977Z,52.33
2023-02-07T18:12:26.714Z,41.38
2023-02-07T18:14:56.649Z,57.35
2023-02-07T18:17:25.767Z,52.30
2023-02-07T18:19:54.364Z,43.20
2023-02-07T18:22:22.518Z,46.78
2023-02-07T18:24:50.577Z,52.33
2023-02-07T18:27:18.656Z,43.85
2023-02-07T18:29:46.946Z,49.10
2023-02-07T18:32:14.795Z,39.90
2023-02-07T18:34:43.129Z,41.38
2023-02-07T18:37:11.203Z,45.65
2023-02-07T18:39:39.269Z,43.75
2023-02-07T18:42:07.111Z,44.60
2023-02-07T18:44:37.252Z,46.17
2023-02-07T18:47:04.869Z,41.90
2023-02-07T18:49:34.731Z,45.45
2023-02-07T18:52:02.944Z,43.50
2023-02-07T18:54:31.262Z,55.30
2023-02-07T18:57:03.210Z,49.78
2023-02-07T18:59:31.288Z,49.35
2023-02-07T19:02:02.195Z,47.70
2023-02-07T19:04:32.602Z,47.92
2023-02-07T19:07:02.304Z,51.38
2023-02-07T19:09:33.623Z,50.53
2023-02-07T19:12:10.833Z,45.97
2023-02-07T19:14:42.148Z,41.85
2023-02-07T19:17:10.194Z,55.88
2023-02-07T19:19:38.306Z,45.92
2023-02-07T19:22:07.189Z,53.03
2023-02-07T19:24:42.477Z,50.25
2023-02-07T19:27:10.781Z,49.85
2023-02-07T19:29:38.784Z,48.95
2023-02-07T19:32:09.489Z,55.85
2023-02-07T19:34:38.158Z,58.13
2023-02-07T19:37:06.113Z,60.08
2023-02-07T19:39:37.631Z,55.85
2023-02-07T19:42:08.977Z,53.40
2023-02-07T19:44:39.458Z,49.30
2023-02-07T19:49:35.912Z,49.78
2023-02-07T19:52:03.795Z,59.10
2023-02-07T19:54:32.926Z,59.88
2023-02-07T19:57:08.558Z,50.45
2023-02-07T19:59:36.444Z,50.38
2023-02-07T20:02:05.066Z,55.72
2023-02-07T20:04:32.835Z,57.63
2023-02-07T20:07:04.499Z,59.65
2023-02-07T20:09:35.113Z,62.08
2023-02-07T20:12:04.331Z,61.63
2023-02-07T20:14:32.870Z,56.42
2023-02-07T20:17:21.571Z,61.05
2023-02-07T20:30:47.635Z,61.70
2023-02-07T20:34:24.923Z,61.67
2023-02-07T20:37:40.499Z,66.90
2023-02-07T20:40:37.656Z,64.78
2023-02-07T20:43:45.436Z,58.72
2023-02-07T20:46:19.954Z,65.63
2023-02-07T20:48:47.575Z,63.78
2023-02-07T20:51:15.262Z,63.53
2023-02-07T20:53:43.719Z,58.28
2023-02-07T20:56:17.196Z,66.25
2023-02-07T20:58:48.769Z,57.85
2023-02-07T21:01:19.523Z,55.03
2023-02-07T21:03:50.102Z,60.10
2023-02-07T21:08:46.491Z,50.10
2023-02-07T21:11:16.286Z,55.40
2023-02-07T21:14:03.327Z,54.35
2023-02-07T21:17:02.265Z,47.95
2023-02-07T21:19:31.914Z,47.85
2023-02-07T21:21:59.999Z,57.30
2023-02-07T21:24:28.195Z,48.35
2023-02-07T21:27:02.639Z,53.38
2023-02-07T21:29:30.466Z,49.42
2023-02-07T21:32:03.903Z,54.47
2023-02-07T21:34:33.370Z,49.40
2023-02-07T21:37:01.715Z,52.67
2023-02-07T21:39:29.702Z,44.75
2023-02-07T21:44:50.773Z,56.38
2023-02-07T21:47:25.230Z,55.58
2023-02-07T21:49:54.948Z,58.65
2023-02-07T21:52:22.739Z,54.00
2023-02-07T21:54:50.682Z,48.65
2023-02-07T21:57:18.903Z,60.72
2023-02-07T21:59:54.499Z,53.13
2023-02-07T22:02:43.384Z,50.63
2023-02-07T22:05:14.512Z,57.17
2023-02-07T22:07:51.554Z,57.03
2023-02-07T22:10:20.122Z,64.03
2023-02-07T22:12:51.122Z,57.42
2023-02-07T22:15:34.337Z,61.75
2023-02-07T22:19:05.409Z,57.60
2023-02-07T22:21:40.679Z,57.20
2023-02-07T22:24:18.332Z,63.60
2023-02-07T22:26:49.235Z,60.20
2023-02-07T22:29:27.669Z,58.67
2023-02-07T22:31:55.806Z,63.20
2023-02-07T22:34:27.018Z,60.85
2023-02-07T22:37:10.906Z,58.17
2023-02-07T22:39:45.992Z,62.45
2023-02-07T22:42:37.098Z,69.57
2023-02-07T22:45:05.901Z,59.15
2023-02-07T22:47:35.190Z,69.90
2023-02-07T22:50:12.286Z,57.95
2023-02-07T22:52:50.180Z,67.90
2023-02-07T22:55:18.765Z,57.40
2023-02-07T23:02:37.342Z,55.28
2023-02-07T23:05:39.475Z,62.38
2023-02-07T23:08:22.104Z,54.95
2023-02-07T23:15:36.809Z,60.08
2023-02-07T23:18:25.347Z,62.47
2023-02-07T23:21:41.173Z,62.47
2023-02-07T23:24:10.747Z,57.53
2023-02-07T23:26:41.566Z,60.03
2023-02-07T23:29:52.075Z,66.10
2023-02-07T23:32:19.954Z,63.38
2023-02-07T23:35:35.704Z,63.80
2023-02-07T23:38:39.824Z,60.60
2023-02-07T23:41:16.964Z,60.45
2023-02-07T23:43:45.130Z,57.85
2023-02-07T23:46:25.452Z,61.40
2023-02-07T23:48:53.854Z,62.08
2023-02-07T23:51:22.299Z,57.60
2023-02-07T23:54:03.181Z,63.30
2023-02-07T23:56:34.929Z,61.95
2023-02-07T23:59:03.252Z,55.97
